Latest Weather Observations for Orange Airport

IDN60801

Issued at 12:32 pm EST Monday 3 August 2015 (issued every 30 minutes, with the page automatically refreshed every 10 minutes)

About weather observations | Map of weather stations | Latest weather observations for NSW | Other Formats
Station Details ID: 063303 Name: ORANGE AIRPORT AWS Lat: -33.38 Lon: 149.13 Height: 944.65 m
Data from the previous 72 hours. | See also: Recent months at Orange Airport
Date/Time
EST
Temp
°C
App
Temp
°C
Dew
Point
Rel
Hum
%
Delta-T
°C
Wind Press
QNH
hPa
Press
MSL
hPa
Rain
since 9 am
mm
Dir
 
Spd
km/h
Gust
km/h
Spd
kts
Gust
kts
03/12:30pm 5.1 -2.5 3.0 86 0.9 WSW 32 44 17 24 1017.6 1018.3 0.0
03/12:06pm 5.3 -3.3 2.8 84 1.1 WSW 37 50 20 27 1017.6 1018.3 0.0
03/12:00pm 5.3 -3.7 2.5 82 1.2 W 39 54 21 29 1017.7 1018.4 0.0
03/11:53am 5.4 -2.6 1.9 78 1.5 W 33 54 18 29 1017.7 1018.4 0.0
03/11:35am 5.7 -3.3 2.5 80 1.4 WSW 39 50 21 27 1017.9 1018.7 0.0
03/11:30am 5.2 -4.2 2.2 81 1.3 WSW 41 56 22 30 1017.9 1018.7 0.0
03/11:00am 5.2 -3.0 2.6 83 1.1 WSW 35 56 19 30 1018.2 1018.9 0.0
03/10:42am 4.5 -3.8 2.2 85 1.0 WSW 35 56 19 30 1018.2 1018.9 0.0
03/10:30am 4.3 -4.7 2.7 89 0.7 WSW 39 52 21 28 1018.3 1019.0 0.0
03/10:11am 4.7 -4.3 2.6 86 0.9 WSW 39 57 21 31 1018.3 1019.0 0.0
03/10:00am 4.4 -4.3 2.3 86 0.9 WSW 37 54 20 29 1018.3 1019.0 0.0
03/09:57am 4.4 -5.0 2.6 88 0.8 WSW 41 59 22 32 1018.4 1019.1 0.0
03/09:56am 4.2 -5.6 2.4 88 0.8 WSW 43 59 23 32 1018.3 1019.0 0.0
03/09:30am 4.1 -5.0 1.8 85 1.0 WSW 39 57 21 31 1018.2 1018.9 0.0
03/09:12am 4.1 -4.3 1.8 85 1.0 WSW 35 54 19 29 1018.3 1019.0 0.0
03/09:00am 3.8 -5.3 1.7 86 0.9 WSW 39 54 21 29 1018.3 1019.0 1.0
03/08:30am 3.6 -4.8 1.6 87 0.8 WSW 35 50 19 27 1018.2 1018.9 1.0
03/08:03am 3.4 -4.4 1.4 87 0.8 WSW 32 50 17 27 1017.9 1018.7 1.0
03/08:00am 3.5 -3.6 1.4 86 0.9 WSW 28 43 15 23 1017.9 1018.7 1.0
03/07:30am 3.4 -4.4 1.8 89 0.7 SW 32 46 17 25 1017.7 1018.4 1.0
03/07:00am 3.3 -4.2 1.2 86 0.9 SW 30 48 16 26 1017.4 1018.1 1.0
03/06:49am 3.3 -4.2 1.2 86 0.9 WSW 30 48 16 26 1017.4 1018.1 1.0
03/06:30am 3.2 -4.7 0.9 85 0.9 WSW 32 43 17 23 1017.3 1018.0 1.0
03/06:00am 3.0 -3.8 0.7 85 0.9 WSW 26 41 14 22 1017.4 1018.1 1.0
03/05:30am 3.0 -3.4 0.7 85 0.9 WSW 24 41 13 22 1017.4 1018.1 1.0
03/05:00am 2.7 -3.3 0.8 87 0.8 WSW 22 33 12 18 1017.4 1018.1 0.8
03/04:30am 1.7 -4.4 0.4 91 0.5 WSW 22 32 12 17 1017.3 1018.0 0.8
03/04:00am 1.2 -4.6 0.0 92 0.5 SW 20 28 11 15 1017.4 1018.1 0.8
03/03:30am 1.4 -4.7 0.2 92 0.5 SW 22 32 12 17 1017.4 1018.1 0.8
03/03:00am 1.3 -5.6 0.1 92 0.5 SW 26 35 14 19 1017.5 1018.2 0.8
03/02:30am 1.4 -5.5 0.2 92 0.5 SSW 26 32 14 17 1017.6 1018.3 0.8
03/02:00am 1.5 -5.0 0.3 92 0.5 SSW 24 33 13 18 1017.8 1018.6 0.8
03/01:30am 1.7 -4.7 0.7 93 0.4 SSW 24 33 13 18 1017.9 1018.7 0.8
03/01:00am 2.1 -6.1 0.5 89 0.6 SW 33 43 18 23 1018.1 1018.8 0.8
03/12:54am 2.1 -6.8 0.8 91 0.5 SW 37 46 20 25 1018.1 1018.8 0.8
03/12:37am 2.4 -6.1 1.2 92 0.5 SW 35 44 19 24 1018.1 1018.8 0.8
03/12:30am 2.5 -5.6 1.2 91 0.5 SW 33 44 18 24 1018.2 1018.9 0.8
03/12:00am 2.4 -4.0 1.2 92 0.5 SW 24 32 13 17 1018.3 1019.0 0.8
 
Date/Time
EST
Temp
°C
App
Temp
°C
Dew
Point
Rel
Hum
%
Delta-T
°C
Wind Press
QNH
hPa
Press
MSL
hPa
Rain
since 9 am
mm
Dir
 
Spd
km/h
Gust
km/h
Spd
kts
Gust
kts
02/11:30pm 2.7 -3.6 1.5 92 0.5 SW 24 35 13 19 1018.4 1019.1 0.8
02/11:00pm 3.1 -3.9 2.1 93 0.4 SW 28 39 15 21 1018.6 1019.3 0.8
02/10:49pm 3.2 -3.4 2.2 93 0.4 SW 26 32 14 17 1018.6 1019.3 0.8
02/10:30pm 3.5 -2.3 2.5 93 0.4 SSW 22 30 12 16 1018.6 1019.3 0.8
02/10:01pm 4.3 -0.9 3.3 93 0.4 SW 20 32 11 17 1018.5 1019.2 0.8
02/10:00pm 4.3 -0.9 3.3 93 0.4 SW 20 32 11 17 1018.5 1019.2 0.8
02/09:42pm 4.7 -2.0 3.7 93 0.4 SW 28 39 15 21 1018.5 1019.2 0.8
02/09:30pm 4.9 -1.8 3.9 93 0.4 SW 28 41 15 22 1018.3 1019.0 0.8
02/09:23pm 4.9 -1.8 3.9 93 0.4 SW 28 41 15 22 1018.3 1019.0 0.8
02/09:05pm 4.9 -1.4 3.9 93 0.4 SW 26 35 14 19 1018.2 1018.9 0.8
02/09:00pm 5.0 -0.9 4.0 93 0.4 SW 24 35 13 19 1018.3 1019.0 0.8
02/08:46pm 4.9 -1.4 3.9 93 0.4 SW 26 37 14 20 1018.4 1019.1 0.8
02/08:30pm 5.0 -1.3 4.0 93 0.4 SW 26 33 14 18 1018.4 1019.1 0.8
02/08:27pm 5.0 -0.9 4.0 93 0.4 SW 24 35 13 19 1018.4 1019.1 0.8
02/08:15pm 5.1 -0.8 4.1 93 0.4 SW 24 32 13 17 1018.3 1019.0 0.8
02/08:09pm 5.1 -0.8 4.1 93 0.4 SSW 24 30 13 16 1018.3 1019.0 0.8
02/08:00pm 5.3 -0.5 4.3 93 0.5 SW 24 30 13 16 1018.3 1019.0 0.8
02/07:54pm 5.4 0.0 4.4 93 0.5 SW 22 33 12 18 1018.3 1019.0 0.8
02/07:50pm 5.6 0.6 4.6 93 0.5 SW 20 33 11 18 1018.3 1019.0 0.8
02/07:31pm 5.9 -0.6 4.9 93 0.5 SSW 28 35 15 19 1018.1 1018.8 0.8
02/07:30pm 5.9 -0.2 4.9 93 0.5 SSW 26 35 14 19 1018.1 1018.8 0.8
02/07:13pm 6.6 1.0 5.6 93 0.5 SW 24 33 13 18 1017.5 1018.2 0.8
02/07:00pm 6.8 0.9 5.7 93 0.5 SW 26 33 14 18 1017.4 1018.1 0.8
02/06:54pm 6.9 1.0 5.8 93 0.5 SW 26 33 14 18 1017.3 1018.0 0.8
02/06:37pm 6.9 0.2 5.8 93 0.5 SW 30 39 16 21 1017.2 1017.9 0.8
02/06:35pm 6.9 0.2 5.8 93 0.5 SW 30 39 16 21 1017.3 1018.0 0.8
02/06:30pm 6.9 0.2 5.8 93 0.5 SW 30 39 16 21 1017.3 1018.0 0.8
02/06:17pm 7.0 0.0 5.9 93 0.5 SW 32 44 17 24 1017.0 1017.7 0.6
02/06:05pm 8.0 1.2 6.9 93 0.5 SW 32 39 17 21 1016.8 1017.5 0.6
02/06:00pm 8.3 1.6 7.2 93 0.5 SW 32 46 17 25 1016.6 1017.3 0.6
02/05:30pm 9.4 4.0 8.0 91 0.7 WSW 26 33 14 18 1016.1 1016.8 0.6
02/05:00pm 9.9 4.8 7.5 85 1.2 WSW 24 32 13 17 1015.6 1016.3 0.6
02/04:30pm 11.8 6.4 6.3 69 2.7 W 24 33 13 18 1015.3 1016.0 0.6
02/04:00pm 12.5 6.7 6.3 66 3.1 W 26 33 14 18 1014.9 1015.5 0.6
02/03:30pm 13.4 6.2 6.0 61 3.7 WNW 33 46 18 25 1014.9 1015.5 0.6
02/03:00pm 15.4 9.7 6.7 56 4.5 NW 26 37 14 20 1014.0 1014.6 0.6
02/02:30pm 15.0 8.9 6.6 57 4.3 NW 28 35 15 19 1013.9 1014.5 0.6
02/02:00pm 13.5 9.4 7.9 69 2.9 NNW 19 30 10 16 1014.2 1014.9 0.6
02/01:30pm 11.9 5.8 6.4 69 2.7 NNW 28 33 15 18 1014.0 1014.6 0.6
02/01:00pm 11.8 6.4 6.5 70 2.6 NNW 24 32 13 17 1014.7 1015.3 0.6
02/12:30pm 11.0 5.6 6.2 72 2.4 NNW 24 33 13 18 1015.2 1015.9 0.6
02/12:00pm 10.5 5.0 5.9 73 2.2 NNW 24 35 13 19 1015.6 1016.3 0.6
02/11:30am 9.7 4.2 5.9 77 1.8 NNW 24 35 13 19 1016.3 1017.0 0.6
02/11:00am 9.5 3.9 5.5 76 1.9 NNW 24 32 13 17 1016.6 1017.3 0.4
02/10:30am 10.0 4.4 5.2 72 2.3 NNW 24 39 13 21 1016.7 1017.4 0.2
02/10:00am 9.6 4.4 5.4 75 2.0 NNW 22 28 12 15 1017.2 1017.9 0.2
02/09:30am 9.7 4.0 4.7 71 2.4 NNW 24 35 13 19 1017.4 1018.1 0.0
02/09:00am 10.1 4.3 4.5 68 2.6 NW 24 32 13 17 1017.6 1018.3 0.0
02/08:30am 10.4 4.6 4.3 66 2.9 NW 24 33 13 18 1017.4 1018.1 0.0
02/08:00am 10.1 3.8 4.0 66 2.8 NNW 26 32 14 17 1017.2 1017.9 0.0
02/07:30am 9.7 3.8 3.9 67 2.7 NNW 24 32 13 17 1017.2 1017.9 0.0
02/07:00am 9.8 3.5 4.0 67 2.7 NNW 26 35 14 19 1017.0 1017.7 0.0
02/06:30am 9.6 2.9 3.8 67 2.7 NNW 28 35 15 19 1016.8 1017.5 0.0
02/06:00am 9.9 2.9 4.1 67 2.7 NNW 30 39 16 21 1016.6 1017.3 0.0
02/05:30am 9.9 3.3 4.1 67 2.7 NNW 28 39 15 21 1016.6 1017.3 0.0
02/05:00am 9.7 2.7 4.1 68 2.6 NNW 30 39 16 21 1016.6 1017.3 0.0
02/04:30am 9.7 3.1 4.1 68 2.6 NNW 28 35 15 19 1016.7 1017.4 0.0
02/04:00am 9.6 2.5 3.8 67 2.7 NNW 30 39 16 21 1016.7 1017.4 0.0
02/03:30am 9.7 3.0 3.9 67 2.7 NNW 28 35 15 19 1017.2 1017.9 0.0
02/03:00am 9.7 3.4 3.9 67 2.7 NNW 26 37 14 20 1017.4 1018.1 0.0
02/02:30am 9.5 3.6 3.9 68 2.6 NNW 24 35 13 19 1017.5 1018.2 0.0
02/02:00am 9.9 3.7 4.1 67 2.7 NNW 26 39 14 21 1017.5 1018.2 0.0
02/01:30am 9.7 4.2 4.1 68 2.6 NNW 22 30 12 16 1017.9 1018.7 0.0
02/01:00am 9.5 4.7 4.5 71 2.3 NNW 19 28 10 15 1018.1 1018.8 0.0
02/12:30am 8.7 5.0 4.7 76 1.9 NNW 13 22 7 12 1018.4 1019.1 0.0
02/12:00am 7.9 6.2 5.9 87 1.0 NE 4 9 2 5 1018.5 1019.2 0.0
 
Date/Time
EST
Temp
°C
App
Temp
°C
Dew
Point
Rel
Hum
%
Delta-T
°C
Wind Press
QNH
hPa
Press
MSL
hPa
Rain
since 9 am
mm
Dir
 
Spd
km/h
Gust
km/h
Spd
kts
Gust
kts
01/11:30pm 7.7 5.0 5.8 88 0.9 E 9 11 5 6 1018.6 1019.3 0.0
01/11:00pm 8.2 5.6 6.0 86 1.1 ENE 9 11 5 6 1018.7 1019.5 0.0
01/10:30pm 8.8 6.3 6.4 85 1.2 ENE 9 15 5 8 1019.1 1019.9 0.0
01/10:00pm 9.0 6.1 6.3 83 1.3 NNE 11 13 6 7 1019.8 1020.6 0.0
01/09:30pm 9.4 6.8 5.9 79 1.7 N 9 13 5 7 1019.9 1020.7 0.0
01/09:00pm 9.5 6.2 6.2 80 1.6 N 13 17 7 9 1020.1 1020.9 0.0
01/08:30pm 9.4 6.0 6.1 80 1.6 N 13 19 7 10 1020.2 1021.0 0.0
01/08:00pm 9.4 5.7 6.1 80 1.6 N 15 17 8 9 1020.0 1020.8 0.0
01/07:30pm 9.1 5.3 5.8 80 1.6 N 15 17 8 9 1019.8 1020.6 0.0
01/07:00pm 9.2 5.7 5.6 78 1.7 N 13 17 7 9 1019.5 1020.2 0.0
01/06:30pm 9.2 4.5 5.0 75 2.0 N 19 22 10 12 1019.3 1020.0 0.0
01/06:00pm 9.8 5.4 5.0 72 2.3 N 17 24 9 13 1018.9 1019.7 0.0
01/05:30pm 10.0 5.6 4.8 70 2.5 N 17 20 9 11 1018.8 1019.6 0.0
01/05:00pm 9.7 5.9 4.1 68 2.6 N 13 20 7 11 1018.7 1019.5 0.0
01/04:30pm 11.5 6.9 3.8 59 3.6 NNW 17 24 9 13 1018.4 1019.1 0.0
01/04:00pm 12.2 6.6 3.7 56 4.0 NW 22 30 12 16 1018.5 1019.2 0.0
01/03:30pm 12.8 8.0 4.5 57 4.0 NNW 19 26 10 14 1018.4 1019.1 0.0
01/03:00pm 12.5 7.0 4.0 56 4.0 NNW 22 30 12 16 1018.5 1019.2 0.0
01/02:30pm 11.3 4.5 2.9 56 3.9 NNW 28 35 15 19 1018.6 1019.3 0.0
01/02:00pm 11.0 3.7 2.6 56 3.8 NNW 30 39 16 21 1018.5 1019.2 0.0
01/01:30pm 11.1 5.1 3.4 59 3.6 NW 24 33 13 18 1018.9 1019.7 0.0
01/01:00pm 9.4 4.2 3.8 68 2.6 NNW 20 28 11 15 1019.1 1019.9 0.0
01/12:30pm 8.9 2.9 3.1 67 2.6 NNW 24 30 13 16 1019.4 1020.1 0.0
01/12:00pm 9.1 2.6 2.7 64 2.9 NW 26 33 14 18 1019.5 1020.2 0.0
01/11:30am 10.1 2.4 2.2 58 3.5 NW 32 43 17 23 1020.0 1020.8 0.0
01/11:00am 9.3 2.9 3.1 65 2.8 NW 26 33 14 18 1019.8 1020.6 0.0
01/10:30am 9.2 2.7 2.5 63 3.0 NW 26 37 14 20 1020.0 1020.8 0.0
01/10:00am 9.3 2.4 2.6 63 3.0 NW 28 35 15 19 1020.1 1020.9 0.0
01/09:30am 8.6 2.1 2.4 65 2.8 NW 26 32 14 17 1019.9 1021.1 0.0
01/09:00am 8.7 2.7 3.3 69 2.4 NW 24 32 13 17 1019.9 1021.1 0.2
01/08:30am 7.3 1.6 3.0 74 1.9 NW 22 26 12 14 1020.1 1021.3 0.2
01/08:00am 6.6 1.3 3.2 79 1.5 NW 20 26 11 14 1020.2 1021.4 0.2
01/07:30am 5.8 0.5 3.0 82 1.2 NW 20 24 11 13 1019.9 1021.1 0.2
01/07:00am 5.0 -0.1 2.9 86 0.9 NW 19 22 10 12 1019.6 1020.8 0.2
01/06:30am 5.0 -0.8 2.5 84 1.1 NW 22 26 12 14 1019.4 1020.5 0.2
01/06:00am 4.3 -1.1 2.5 88 0.8 NW 20 22 11 12 1019.4 1020.5 0.2
01/05:30am 4.9 -0.4 3.1 88 0.8 NW 20 24 11 13 1019.3 1020.4 0.2
01/05:00am 4.7 -1.0 2.7 87 0.9 NW 22 28 12 15 1019.4 1020.5 0.2
01/04:30am 3.2 -2.1 2.0 92 0.5 NW 19 20 10 11 1019.5 1020.6 0.0
01/04:00am 3.3 -2.0 2.0 91 0.5 NW 19 20 10 11 1019.4 1020.5 0.0
01/03:30am 4.6 -1.2 2.5 86 0.9 NW 22 28 12 15 1019.8 1021.0 0.0
01/03:00am 4.2 -1.2 2.7 90 0.6 NW 20 28 11 15 1020.1 1021.3 0.0
01/02:30am 1.2 -1.1 0.2 93 0.4 NNE 2 7 1 4 1020.6 1021.8 0.0
01/02:00am 2.3 -0.8 1.3 93 0.4 N 7 9 4 5 1020.9 1022.1 0.0
01/01:30am 2.4 -0.7 1.4 93 0.4 N 7 9 4 5 1021.2 1022.4 0.0
01/01:00am 0.9 -1.5 -0.1 93 0.4 NNW 2 6 1 3 1021.3 1022.5 0.0
01/12:30am 1.5 -2.1 0.5 93 0.4 NNW 9 9 5 5 1021.3 1022.5 0.0
01/12:00am 1.6 -1.6 0.6 93 0.4 N 7 9 4 5 1021.6 1022.8 0.0
 
Date/Time
EST
Temp
°C
App
Temp
°C
Dew
Point
Rel
Hum
%
Delta-T
°C
Wind Press
QNH
hPa
Press
MSL
hPa
Rain
since 9 am
mm
Dir
 
Spd
km/h
Gust
km/h
Spd
kts
Gust
kts
31/11:30pm 1.5 -0.4 0.5 93 0.4 CALM 0 0 0 0 1022.1 1023.3 0.0
31/11:00pm 1.1 -0.9 -0.4 90 0.6 CALM 0 0 0 0 1022.2 1023.4 0.0
31/10:30pm 3.8 2.2 2.3 90 0.6 CALM 0 0 0 0 1022.4 1023.7 0.0
31/10:00pm 4.1 1.3 2.9 92 0.5 NW 7 9 4 5 1022.5 1023.8 0.0
31/09:30pm 1.6 -0.3 0.6 93 0.4 CALM 0 0 0 0 1022.4 1023.7 0.0
31/09:00pm 1.9 -1.1 0.7 92 0.5 N 6 7 3 4 1022.7 1023.9 0.0
31/08:30pm 2.8 0.0 1.8 93 0.4 N 6 7 3 4 1022.1 1023.3 0.0
31/08:00pm 2.6 -0.3 1.4 92 0.5 NNW 6 9 3 5 1022.0 1023.2 0.0
31/07:30pm 4.3 1.5 3.0 91 0.6 NNW 7 9 4 5 1021.8 1023.0 0.0
31/07:00pm 4.5 1.7 3.0 90 0.6 NW 7 7 4 4 1021.4 1022.7 0.0
31/06:30pm 4.7 1.8 2.7 87 0.9 N 7 9 4 5 1021.4 1022.7 0.0
31/06:00pm 6.2 2.6 2.8 79 1.5 N 11 11 6 6 1021.3 1022.5 0.0
31/05:30pm 7.0 3.4 2.9 75 1.8 NNW 11 11 6 6 1021.1 1022.3 0.0
31/05:00pm 9.1 5.2 3.3 67 2.6 NNW 13 17 7 9 1021.1 1022.3 0.0
31/04:30pm 10.5 5.8 3.1 60 3.4 WNW 17 20 9 11 1020.8 1022.0 0.0
31/04:00pm 11.1 6.3 2.7 56 3.8 NW 17 22 9 12 1020.8 1022.0 0.0
31/03:30pm 11.5 7.4 2.5 54 4.1 WSW 13 20 7 11 1020.9 1022.1 0.0
31/03:00pm 11.8 6.7 2.8 54 4.1 W 19 24 10 13 1020.8 1022.0 0.0
31/02:30pm 11.9 7.3 3.7 57 3.9 WSW 17 24 9 13 1020.8 1022.0 0.0
31/02:00pm 11.7 6.5 2.5 53 4.2 WSW 19 26 10 14 1020.9 1022.1 0.0
31/01:30pm 11.6 5.8 2.1 52 4.3 WSW 22 30 12 16 1021.2 1022.4 0.0
31/01:00pm 11.8 6.6 2.3 52 4.3 WSW 19 28 10 15 1021.6 1022.8 0.0

Other Formats:

Comma delimited format used in spreadsheet applications
http://www.bom.gov.au/fwo/IDN60801/IDN60801.95726.axf

JavaScript Object Notation format (JSON) in row-major order
http://www.bom.gov.au/fwo/IDN60801/IDN60801.95726.json